Time;durP1;ratioP1;P1;durP2;ratioP2;P2;SDS_P1;SDS_P2;PMS_P1;PMS_P2;Temp;Humidity;BMP_temperature;BMP_pressure;BME280_temperature;BME280_humidity;BME280_pressure;Samples;Min_cycle;Max_cycle;Signal;HPM_P1;HPM_P2
2022/10/18 00:00:00;;;;;;;2.53;2.33;;;;;;;23.22;61.64;98429.09;5052047;28;20295;-31
2022/10/18 00:02:26;;;;;;;3.10;2.50;;;;;;;23.25;61.73;98430.91;5050524;28;20199;-31
2022/10/18 00:04:53;;;;;;;2.93;2.50;;;;;;;23.26;61.84;98430.97;5052196;28;20209;-32
2022/10/18 00:07:19;;;;;;;3.13;2.67;;;;;;;23.27;61.72;98429.28;5051414;28;20621;-31
2022/10/18 00:09:46;;;;;;;2.97;2.40;;;;;;;23.21;61.61;98419.63;5049287;28;20251;-31
2022/10/18 00:12:12;;;;;;;2.87;2.47;;;;;;;23.26;61.93;98433.53;5050138;28;20207;-31
2022/10/18 00:14:39;;;;;;;2.37;2.17;;;;;;;23.27;61.71;98430.13;5047045;28;20212;-31
2022/10/18 00:17:06;;;;;;;2.77;2.50;;;;;;;23.26;61.44;98430.97;5050913;28;20208;-31
2022/10/18 00:19:32;;;;;;;2.80;2.57;;;;;;;23.26;61.77;98424.94;5056811;28;20220;-31
2022/10/18 00:21:59;;;;;;;3.60;2.53;;;;;;;23.26;61.48;98428.41;5054265;28;20211;-31
2022/10/18 00:24:25;;;;;;;2.60;2.33;;;;;;;23.26;61.84;98419.81;5057332;28;20201;-31
2022/10/18 00:26:52;;;;;;;2.73;2.53;;;;;;;23.26;61.71;98425.84;5044783;28;20595;-32
2022/10/18 00:29:18;;;;;;;2.47;2.27;;;;;;;23.26;61.53;98417.25;5043351;28;20216;-31
2022/10/18 00:31:45;;;;;;;2.40;2.20;;;;;;;23.26;61.54;98424.94;5053824;28;20216;-31
2022/10/18 00:34:13;;;;;;;2.50;2.30;;;;;;;23.26;61.60;98423.28;5049517;28;20212;-31
2022/10/18 00:36:40;;;;;;;2.60;2.40;;;;;;;23.27;61.58;98434.41;5044091;28;20197;-32
2022/10/18 00:39:07;;;;;;;2.53;2.30;;;;;;;23.26;61.84;98423.28;5041889;28;20216;-31
2022/10/18 00:41:34;;;;;;;2.50;2.30;;;;;;;23.24;61.70;98413.78;5048695;28;20686;-31
2022/10/18 00:44:11;;;;;;;3.93;2.70;;;;;;;23.27;61.59;98416.47;5049434;28;20215;-31
2022/10/18 00:46:42;;;;;;;2.60;2.40;;;;;;;23.26;61.90;98412.13;5056586;28;20241;-31
2022/10/18 00:49:17;;;;;;;2.53;2.33;;;;;;;23.21;61.87;98409.34;5055112;28;20220;-31
2022/10/18 00:51:50;;;;;;;2.67;2.47;;;;;;;23.23;61.93;98420.56;5034230;28;20243;-31
2022/10/18 00:54:17;;;;;;;2.60;2.40;;;;;;;23.15;61.79;98396.31;5046854;28;20204;-31
2022/10/18 00:56:44;;;;;;;4.07;2.70;;;;;;;23.26;61.91;98417.25;5046723;28;20221;-31
2022/10/18 00:59:11;;;;;;;2.97;2.43;;;;;;;23.27;61.76;98411.31;5047156;28;20782;-31
2022/10/18 01:01:38;;;;;;;3.97;2.93;;;;;;;23.26;61.75;98410.44;5044755;28;20537;-31
2022/10/18 01:04:05;;;;;;;2.97;2.67;;;;;;;23.27;61.81;98411.31;5060603;28;20676;-31
2022/10/18 01:06:31;;;;;;;2.67;2.40;;;;;;;23.26;61.93;98413.00;5051199;28;20782;-31
2022/10/18 01:09:17;;;;;;;2.93;2.63;;;;;;;23.27;61.91;98417.31;5040898;28;20228;-31
2022/10/18 01:12:18;;;;;;;2.90;2.60;;;;;;;23.26;61.52;98413.00;5044814;28;20204;-31
2022/10/18 01:15:11;;;;;;;2.70;2.50;;;;;;;23.27;61.57;98414.75;5042286;28;20207;-31
2022/10/18 01:17:44;;;;;;;3.17;2.40;;;;;;;23.24;61.86;98412.06;5054756;28;20193;-31
2022/10/18 01:20:23;;;;;;;2.83;2.53;;;;;;;23.26;61.74;98441.22;5048206;28;20200;-31
2022/10/18 01:23:18;;;;;;;2.70;2.50;;;;;;;23.26;61.74;98420.69;5056704;28;20746;-31
2022/10/18 01:26:03;;;;;;;2.37;2.17;;;;;;;23.26;61.83;98428.41;5050917;28;20197;-31
2022/10/18 01:28:33;;;;;;;2.60;2.37;;;;;;;23.27;61.66;98429.28;5048232;28;20629;-31
2022/10/18 01:31:09;;;;;;;2.87;2.40;;;;;;;23.26;61.63;98425.84;5045436;28;20206;-32
2022/10/18 01:33:49;;;;;;;2.70;2.50;;;;;;;23.26;61.57;98424.94;5047528;28;20208;-31
2022/10/18 01:36:16;;;;;;;2.60;2.40;;;;;;;23.26;61.67;98441.22;5036114;28;20233;-31
2022/10/18 01:38:42;;;;;;;2.87;2.40;;;;;;;23.26;61.92;98417.25;5050114;28;20235;-31
2022/10/18 01:41:09;;;;;;;2.93;2.73;;;;;;;23.18;61.73;98404.13;5051213;28;20200;-31
2022/10/18 01:43:41;;;;;;;2.73;2.53;;;;;;;23.18;61.77;98405.84;5031954;28;20213;-31
2022/10/18 01:46:07;;;;;;;3.13;2.70;;;;;;;23.12;62.12;98390.22;5039591;28;20603;-32
2022/10/18 01:48:36;;;;;;;3.07;2.07;;;;;;;23.16;61.64;98404.88;5034408;28;20710;-31
2022/10/18 01:51:04;;;;;;;2.80;2.53;;;;;;;23.26;61.77;98417.25;5034357;28;20200;-31
2022/10/18 01:53:31;;;;;;;3.07;2.70;;;;;;;23.26;61.73;98409.56;5051388;28;20637;-31
2022/10/18 01:56:26;;;;;;;2.60;2.40;;;;;;;23.26;61.61;98413.00;5051875;28;20664;-32
2022/10/18 01:59:03;;;;;;;2.63;2.43;;;;;;;23.23;61.84;98402.59;5041865;28;20228;-31
2022/10/18 02:01:43;;;;;;;2.80;2.50;;;;;;;22.66;61.74;98315.88;5052934;28;20267;-31
2022/10/18 02:04:39;;;;;;;2.80;2.60;;;;;;;23.19;61.84;98408.44;5050009;28;20239;-31
2022/10/18 02:07:12;;;;;;;2.23;2.13;;;;;;;23.26;61.69;98417.25;5053886;28;20223;-31
2022/10/18 02:09:49;;;;;;;2.67;2.37;;;;;;;23.26;61.73;98418.13;5048047;28;20228;-31
2022/10/18 02:12:16;;;;;;;2.50;2.30;;;;;;;23.18;61.89;98400.69;5042208;28;20201;-31
2022/10/18 02:14:42;;;;;;;3.00;2.67;;;;;;;23.26;61.80;98415.56;5040237;28;20671;-31
2022/10/18 02:17:09;;;;;;;2.40;2.20;;;;;;;22.59;61.62;98301.06;5034834;28;20210;-31
2022/10/18 02:19:54;;;;;;;2.80;2.60;;;;;;;23.26;61.87;98418.13;5040787;28;20297;-31
2022/10/18 02:22:23;;;;;;;3.03;2.43;;;;;;;23.27;61.98;98419.03;5054359;28;20205;-31
2022/10/18 02:24:53;;;;;;;3.43;2.90;;;;;;;23.26;61.81;98417.25;5051221;28;20204;-31
2022/10/18 02:27:19;;;;;;;2.50;2.30;;;;;;;23.27;61.91;98416.47;5045704;28;20224;-31
2022/10/18 02:29:46;;;;;;;2.70;2.50;;;;;;;23.26;61.61;98419.81;5032222;28;20228;-31
2022/10/18 02:32:33;;;;;;;2.60;2.40;;;;;;;23.19;61.83;98399.88;5042767;28;20216;-31
2022/10/18 02:35:02;;;;;;;2.97;2.67;;;;;;;23.27;61.76;98416.47;5041709;28;20200;-31
2022/10/18 02:37:32;;;;;;;2.50;2.30;;;;;;;23.16;61.93;98403.22;5049607;28;20193;-31
2022/10/18 02:39:58;;;;;;;2.40;2.20;;;;;;;23.27;61.77;98413.91;5032920;28;20668;-32
2022/10/18 02:42:28;;;;;;;2.70;2.50;;;;;;;23.27;61.90;98411.31;5049549;28;20211;-32
2022/10/18 02:44:55;;;;;;;2.70;2.50;;;;;;;23.27;61.89;98408.75;5043731;28;20203;-32
2022/10/18 02:47:21;;;;;;;2.40;2.20;;;;;;;22.98;61.75;98358.06;5051099;28;20761;-31
2022/10/18 02:49:48;;;;;;;2.33;2.13;;;;;;;23.26;61.69;98418.13;5050968;28;20225;-31
2022/10/18 02:52:14;;;;;;;2.40;2.20;;;;;;;23.27;61.74;98416.47;5049032;28;20197;-31
2022/10/18 02:54:41;;;;;;;2.60;2.40;;;;;;;23.27;61.88;98411.31;5051154;28;20197;-31
2022/10/18 02:57:07;;;;;;;2.90;2.70;;;;;;;23.22;61.61;98403.44;5046931;28;20212;-31
2022/10/18 02:59:34;;;;;;;2.60;2.40;;;;;;;23.27;61.81;98408.75;5050542;28;20247;-31
2022/10/18 03:02:00;;;;;;;2.93;2.40;;;;;;;23.27;61.97;98408.75;5051453;28;20705;-31
2022/10/18 03:04:27;;;;;;;2.93;2.63;;;;;;;23.27;61.68;98406.19;5050251;28;20205;-31
2022/10/18 03:06:58;;;;;;;2.40;2.20;;;;;;;23.27;61.67;98412.19;5048241;28;20232;-31
2022/10/18 03:09:25;;;;;;;2.70;2.50;;;;;;;23.27;61.80;98413.91;5046599;28;20711;-31
2022/10/18 03:11:51;;;;;;;2.80;2.60;;;;;;;23.27;61.85;98416.47;5051492;28;20204;-31
2022/10/18 03:14:18;;;;;;;2.30;2.20;;;;;;;23.26;61.71;98415.56;5052782;28;20197;-32
2022/10/18 03:16:44;;;;;;;2.93;2.67;;;;;;;23.27;61.65;98421.59;5050559;28;20205;-32
2022/10/18 03:19:11;;;;;;;2.40;2.20;;;;;;;23.24;61.57;98418.91;5050427;28;20225;-31
2022/10/18 03:21:37;;;;;;;2.30;2.10;;;;;;;23.24;61.68;98418.91;5058004;28;20587;-31
2022/10/18 03:24:04;;;;;;;2.40;2.20;;;;;;;23.27;61.71;98422.44;5058329;28;20208;-31
2022/10/18 03:26:31;;;;;;;2.60;2.40;;;;;;;23.26;61.85;98430.06;5051735;28;20642;-31
2022/10/18 03:28:57;;;;;;;2.60;2.40;;;;;;;23.26;61.66;98423.28;5038911;28;20225;-31
2022/10/18 03:31:24;;;;;;;2.73;2.53;;;;;;;23.27;61.85;98429.28;5048873;28;20205;-31
2022/10/18 03:33:51;;;;;;;2.67;2.33;;;;;;;23.27;61.67;98434.41;5041986;28;20284;-31
2022/10/18 03:36:17;;;;;;;2.60;2.40;;;;;;;23.27;61.59;98434.41;5053496;28;20663;-31
2022/10/18 03:38:44;;;;;;;2.70;2.50;;;;;;;23.22;62.06;98433.31;5052933;28;20238;-31
2022/10/18 03:41:10;;;;;;;2.60;2.40;;;;;;;23.22;61.58;98415.38;5050144;28;20201;-31
2022/10/18 03:43:37;;;;;;;2.50;2.30;;;;;;;23.27;61.64;98421.59;5049263;28;20201;-31
2022/10/18 03:46:03;;;;;;;2.57;2.37;;;;;;;23.27;61.75;98430.13;5050432;28;20208;-31
2022/10/18 03:48:30;;;;;;;2.50;2.30;;;;;;;23.27;61.92;98427.56;5050215;28;20228;-31
2022/10/18 03:50:56;;;;;;;2.67;2.47;;;;;;;23.27;61.89;98430.13;5048968;28;20562;-31
2022/10/18 03:53:23;;;;;;;2.43;2.23;;;;;;;23.28;61.93;98428.44;5044233;28;20228;-31
2022/10/18 03:55:51;;;;;;;2.50;2.30;;;;;;;23.27;61.67;98432.69;5053586;28;20227;-32
2022/10/18 03:58:17;;;;;;;2.60;2.40;;;;;;;23.27;61.66;98432.69;5036726;28;20221;-32
2022/10/18 04:00:44;;;;;;;2.80;2.60;;;;;;;23.28;61.56;98425.88;5046701;28;20228;-32
2022/10/18 04:03:11;;;;;;;3.00;2.70;;;;;;;23.27;61.90;98412.19;5056303;28;20200;-31
2022/10/18 04:05:37;;;;;;;2.50;2.30;;;;;;;23.27;61.80;98419.88;5057144;28;20196;-31
2022/10/18 04:08:04;;;;;;;2.37;2.17;;;;;;;23.27;62.01;98425.00;5050375;28;20221;-31
2022/10/18 04:10:30;;;;;;;3.27;2.50;;;;;;;23.28;61.64;98428.44;5046525;28;20193;-31
2022/10/18 04:12:57;;;;;;;2.33;2.13;;;;;;;23.26;62.00;98424.94;5048658;28;20196;-31
2022/10/18 04:15:23;;;;;;;2.60;2.40;;;;;;;23.27;61.79;98434.41;5043006;28;20217;-32
2022/10/18 04:17:50;;;;;;;2.33;2.13;;;;;;;23.28;61.71;98438.72;5039640;28;20233;-31
2022/10/18 04:20:16;;;;;;;2.80;2.60;;;;;;;23.24;61.73;98430.03;5045835;28;20656;-31
2022/10/18 04:22:43;;;;;;;2.70;2.50;;;;;;;23.27;61.75;98427.56;5051615;28;20201;-31
2022/10/18 04:25:09;;;;;;;2.43;2.23;;;;;;;23.27;61.80;98435.25;5048976;28;20201;-32
2022/10/18 04:27:36;;;;;;;2.50;2.30;;;;;;;23.28;61.66;98436.16;5049022;28;20231;-32
2022/10/18 04:30:03;;;;;;;2.70;2.50;;;;;;;23.27;61.55;98442.09;5050482;28;20684;-31
2022/10/18 04:32:29;;;;;;;2.47;2.27;;;;;;;23.27;61.52;98439.53;5042741;28;20292;-31
2022/10/18 04:34:56;;;;;;;2.20;2.10;;;;;;;23.27;61.71;98431.84;5041735;28;20204;-31
2022/10/18 04:37:22;;;;;;;2.67;2.47;;;;;;;23.27;61.73;98429.28;5056471;28;20497;-31
2022/10/18 04:39:49;;;;;;;2.90;2.60;;;;;;;23.27;61.81;98426.72;5044063;28;20711;-31
2022/10/18 04:42:19;;;;;;;2.23;2.13;;;;;;;23.24;61.75;98424.91;5059500;28;20200;-31
2022/10/18 04:44:46;;;;;;;2.37;2.17;;;;;;;23.27;61.58;98424.16;5058901;28;20204;-31
2022/10/18 04:47:12;;;;;;;2.47;2.27;;;;;;;23.28;61.88;98425.88;5063229;28;20601;-31
2022/10/18 04:49:39;;;;;;;2.17;2.07;;;;;;;23.27;61.57;98431.84;5060148;28;20216;-31
2022/10/18 04:52:05;;;;;;;2.57;2.37;;;;;;;23.27;61.58;98426.72;5048798;28;20593;-40
2022/10/18 04:54:32;;;;;;;2.60;2.40;;;;;;;23.24;61.59;98418.91;5054188;28;20640;-31
2022/10/18 04:56:58;;;;;;;2.40;2.20;;;;;;;23.27;61.80;98425.00;5059524;28;20199;-32
2022/10/18 04:59:25;;;;;;;2.57;2.37;;;;;;;23.26;61.84;98427.50;5061601;28;20600;-31
2022/10/18 05:01:51;;;;;;;2.30;2.10;;;;;;;23.27;61.68;98427.56;5053343;28;20208;-31
2022/10/18 05:04:18;;;;;;;2.50;2.30;;;;;;;23.27;61.65;98419.88;5051215;28;20482;-31
2022/10/18 05:06:44;;;;;;;2.43;2.23;;;;;;;23.28;61.65;98413.94;5051076;28;20201;-31
2022/10/18 05:09:11;;;;;;;2.70;2.50;;;;;;;23.27;61.81;98414.75;5046493;28;20216;-31
2022/10/18 05:11:37;;;;;;;2.67;2.47;;;;;;;23.28;61.57;98403.69;5057560;28;20228;-31
2022/10/18 05:14:04;;;;;;;2.60;2.40;;;;;;;23.29;61.60;98407.09;5066930;28;20201;-31
2022/10/18 05:16:31;;;;;;;2.40;2.20;;;;;;;23.29;62.37;98404.53;5051517;28;20217;-31
2022/10/18 05:18:58;;;;;;;2.80;2.60;;;;;;;23.28;61.79;98407.94;5044904;28;20217;-31
2022/10/18 05:21:24;;;;;;;3.93;3.33;;;;;;;23.29;61.47;98409.66;5051114;28;20220;-31
2022/10/18 05:23:54;;;;;;;4.50;4.10;;;;;;;23.28;61.20;98411.38;5051664;28;20205;-31
2022/10/18 05:26:21;;;;;;;6.87;6.13;;;;;;;23.29;60.80;98404.53;5053384;28;20197;-31
2022/10/18 05:28:51;;;;;;;11.27;9.47;;;;;;;23.28;60.40;98406.25;5052689;28;20232;-31
2022/10/18 05:31:17;;;;;;;13.07;11.93;;;;;;;23.27;60.20;98404.47;5052335;28;20197;-32
2022/10/18 05:33:44;;;;;;;14.37;13.10;;;;;;;23.28;59.55;98408.81;5055066;28;20201;-31
2022/10/18 05:36:10;;;;;;;14.37;12.97;;;;;;;23.24;59.48;98408.66;5051130;28;20201;-32
2022/10/18 05:38:39;;;;;;;13.03;11.90;;;;;;;23.27;59.49;98401.06;5056108;28;20212;-31
2022/10/18 05:41:05;;;;;;;11.60;10.60;;;;;;;23.26;59.12;98397.63;5060863;28;20649;-31
2022/10/18 05:43:32;;;;;;;11.87;10.00;;;;;;;23.26;57.94;98413.00;5052291;28;20205;-31
2022/10/18 05:45:58;;;;;;;9.97;9.07;;;;;;;23.25;58.17;98420.66;5050724;28;20381;-31
2022/10/18 05:48:25;;;;;;;9.70;8.80;;;;;;;23.25;58.52;98418.09;5051497;28;20224;-31
2022/10/18 05:50:52;;;;;;;9.23;8.30;;;;;;;23.25;59.38;98418.09;5052681;28;20207;-31
2022/10/18 05:53:18;;;;;;;14.03;7.70;;;;;;;23.19;59.44;98410.13;5051494;28;20572;-32
2022/10/18 05:56:05;;;;;;;7.50;6.80;;;;;;;23.24;59.72;98421.47;5043415;28;20208;-31
2022/10/18 05:58:32;;;;;;;8.30;7.10;;;;;;;23.24;59.89;98413.78;5042531;28;20737;-31
2022/10/18 06:01:03;;;;;;;7.10;6.50;;;;;;;23.23;60.01;98423.13;5057723;28;20220;-31
2022/10/18 06:03:30;;;;;;;13.23;6.57;;;;;;;23.24;60.09;98421.47;5056916;28;20219;-31
2022/10/18 06:06:00;;;;;;;11.03;7.03;;;;;;;23.22;59.37;98416.25;5049500;28;20267;-31
2022/10/18 06:08:26;;;;;;;7.10;6.10;;;;;;;23.23;58.54;98427.38;5048432;28;20221;-31
2022/10/18 06:10:53;;;;;;;10.67;7.13;;;;;;;23.22;58.91;98433.31;5056073;28;20204;-31
2022/10/18 06:13:19;;;;;;;7.73;6.63;;;;;;;23.23;59.30;98435.06;5053669;28;20204;-31
2022/10/18 06:15:46;;;;;;;8.37;5.87;;;;;;;23.21;59.55;98424.75;5061835;28;20229;-31
2022/10/18 06:18:12;;;;;;;6.43;5.80;;;;;;;23.21;59.43;98436.72;5063838;28;20216;-31
2022/10/18 06:20:39;;;;;;;7.47;5.43;;;;;;;23.21;59.73;98437.56;5048674;28;20208;-31
2022/10/18 06:23:05;;;;;;;7.33;5.93;;;;;;;23.21;60.00;98440.13;5048086;28;20561;-31
2022/10/18 06:25:32;;;;;;;7.37;5.70;;;;;;;23.22;59.99;98443.59;5048153;28;20965;-32
2022/10/18 06:27:58;;;;;;;5.97;5.37;;;;;;;23.16;60.11;98433.97;5035906;28;20244;-31
2022/10/18 06:30:25;;;;;;;7.30;5.67;;;;;;;23.21;59.86;98432.44;5041832;28;20284;-31
2022/10/18 06:32:51;;;;;;;5.73;5.13;;;;;;;23.21;59.83;98432.44;5034002;28;20206;-31
2022/10/18 06:35:18;;;;;;;7.43;5.20;;;;;;;23.22;59.94;98441.91;5031694;28;20208;-31
2022/10/18 06:37:44;;;;;;;6.27;5.60;;;;;;;23.22;60.20;98451.28;5049748;28;20205;-31
2022/10/18 06:40:11;;;;;;;9.40;5.27;;;;;;;23.11;60.26;98425.25;5051988;28;20681;-31
2022/10/18 06:42:38;;;;;;;6.97;4.50;;;;;;;23.15;60.54;98428.81;5049020;28;20645;-31
2022/10/18 06:45:05;;;;;;;6.70;5.20;;;;;;;23.22;60.53;98443.59;5053792;28;20227;-32
2022/10/18 06:47:31;;;;;;;5.90;5.17;;;;;;;23.20;60.56;98440.97;5046016;28;20225;-31
2022/10/18 06:49:58;;;;;;;5.20;4.60;;;;;;;23.22;60.62;98454.72;5046489;28;20201;-32
2022/10/18 06:52:25;;;;;;;5.27;4.73;;;;;;;23.23;60.67;98450.44;5048036;28;20768;-31
2022/10/18 06:54:52;;;;;;;5.97;4.57;;;;;;;23.22;60.86;98449.59;5051146;28;20196;-31
2022/10/18 06:57:19;;;;;;;7.83;4.03;;;;;;;23.21;60.85;98452.97;5054636;28;20600;-31
2022/10/18 06:59:46;;;;;;;4.93;4.43;;;;;;;23.23;61.01;98463.28;5046319;28;20232;-32
2022/10/18 07:02:18;;;;;;;4.83;4.30;;;;;;;23.25;60.91;98464.25;5048970;28;20201;-31
2022/10/18 07:04:44;;;;;;;4.27;3.90;;;;;;;23.24;61.00;98453.09;5049710;28;20210;-31
2022/10/18 07:07:11;;;;;;;5.77;3.87;;;;;;;23.26;61.03;98469.44;5053004;28;20204;-31
2022/10/18 07:09:37;;;;;;;4.47;4.03;;;;;;;23.26;60.94;98464.31;5051287;28;20216;-31
2022/10/18 07:12:04;;;;;;;4.77;4.27;;;;;;;23.27;60.98;98466.03;5048092;28;20601;-31
2022/10/18 07:14:31;;;;;;;6.27;4.03;;;;;;;23.27;60.41;98466.03;5042482;28;20399;-31
2022/10/18 07:16:58;;;;;;;4.80;4.30;;;;;;;23.28;60.86;98469.50;5048527;28;20749;-32
2022/10/18 07:19:25;;;;;;;3.93;3.53;;;;;;;23.28;61.31;98460.13;5049886;28;20216;-32
2022/10/18 07:21:51;;;;;;;4.20;3.80;;;;;;;23.29;60.90;98474.69;5050984;28;20221;-31
2022/10/18 07:24:18;;;;;;;5.60;4.57;;;;;;;23.29;60.69;98459.28;5049938;28;20631;-31
2022/10/18 07:26:44;;;;;;;6.33;4.97;;;;;;;23.29;60.54;98468.66;5048379;28;20205;-31
2022/10/18 07:29:11;;;;;;;5.03;4.50;;;;;;;23.27;60.40;98462.63;5049457;28;20224;-31
2022/10/18 07:31:37;;;;;;;8.37;5.27;;;;;;;23.29;60.17;98466.09;5041995;28;20582;-31
2022/10/18 07:34:04;;;;;;;11.53;5.20;;;;;;;23.29;60.40;98458.41;5038873;28;20240;-31
2022/10/18 07:36:31;;;;;;;7.13;4.63;;;;;;;23.30;60.48;98467.88;5043504;28;20204;-31
2022/10/18 07:38:58;;;;;;;7.13;4.77;;;;;;;23.25;60.60;98456.56;5040227;28;20492;-31
2022/10/18 07:41:25;;;;;;;5.40;4.40;;;;;;;23.29;60.81;98466.09;5040435;28;20208;-31
2022/10/18 07:43:51;;;;;;;6.27;4.50;;;;;;;23.29;60.70;98467.00;5042011;28;20602;-31
2022/10/18 07:46:19;;;;;;;6.17;4.77;;;;;;;23.25;60.68;98474.50;5040541;28;20212;-31
2022/10/18 07:48:45;;;;;;;5.60;3.87;;;;;;;23.29;60.80;98484.06;5047969;28;20232;-31
2022/10/18 07:51:12;;;;;;;5.13;4.03;;;;;;;23.30;60.74;98480.69;5040986;28;20220;-31
2022/10/18 07:53:38;;;;;;;5.77;4.30;;;;;;;23.30;60.53;98475.56;5039102;28;20210;-31
2022/10/18 07:56:15;;;;;;;5.23;4.10;;;;;;;23.29;60.88;98481.50;5041830;28;20589;-31
2022/10/18 07:58:43;;;;;;;5.73;4.30;;;;;;;23.29;60.72;98469.56;5040830;28;20247;-31
2022/10/18 08:01:09;;;;;;;4.57;4.17;;;;;;;23.29;61.06;98468.66;5035592;28;20652;-32
2022/10/18 08:03:36;;;;;;;5.20;3.87;;;;;;;23.29;60.99;98458.41;5036859;28;20758;-31
2022/10/18 08:06:03;;;;;;;4.37;3.93;;;;;;;23.30;60.80;98457.63;5044437;28;20205;-31
2022/10/18 08:08:30;;;;;;;4.27;3.60;;;;;;;23.24;60.93;98436.88;5040004;28;20220;-31
2022/10/18 08:11:04;;;;;;;4.70;4.00;;;;;;;23.29;61.08;98451.59;5041757;28;20208;-31
2022/10/18 08:13:31;;;;;;;5.73;3.53;;;;;;;23.29;60.84;98453.28;5044615;28;20626;-31
2022/10/18 08:16:08;;;;;;;4.03;3.63;;;;;;;23.29;60.99;98456.72;5044986;28;20498;-31
2022/10/18 08:18:35;;;;;;;5.30;4.00;;;;;;;23.29;61.00;98460.97;5035923;28;20228;-31
2022/10/18 08:21:03;;;;;;;5.13;3.60;;;;;;;23.27;60.99;98462.63;5039568;28;20204;-31
2022/10/18 08:23:30;;;;;;;7.23;3.40;;;;;;;23.29;60.91;98467.00;5042371;28;20198;-32
2022/10/18 08:26:00;;;;;;;3.70;3.40;;;;;;;23.30;61.06;98468.72;5045806;28;20205;-31
2022/10/18 08:28:26;;;;;;;4.80;3.70;;;;;;;23.30;61.29;98463.59;5040147;28;20228;-32
2022/10/18 08:30:53;;;;;;;4.13;3.47;;;;;;;23.30;61.30;98460.19;5040118;28;20216;-32
2022/10/18 08:33:19;;;;;;;4.23;3.83;;;;;;;23.30;61.27;98450.78;5046992;28;20224;-31
2022/10/18 08:35:56;;;;;;;4.10;3.63;;;;;;;23.30;61.12;98448.19;5044342;28;20205;-32
2022/10/18 08:38:22;;;;;;;4.33;3.27;;;;;;;23.31;61.11;98449.97;5041876;28;20604;-31
2022/10/18 08:40:49;;;;;;;4.17;3.77;;;;;;;23.30;61.27;98453.34;5046044;28;20197;-31
2022/10/18 08:43:36;;;;;;;4.60;3.53;;;;;;;23.30;61.19;98466.16;5046606;28;20197;-31
2022/10/18 08:46:02;;;;;;;3.70;3.33;;;;;;;23.31;61.01;98470.50;5029530;28;20662;-31
2022/10/18 08:48:34;;;;;;;3.73;3.43;;;;;;;23.31;61.27;98457.66;5042233;28;20220;-31
2022/10/18 08:51:00;;;;;;;6.07;4.40;;;;;;;23.23;61.44;98446.22;5047425;28;20204;-31
2022/10/18 08:53:39;;;;;;;5.67;4.43;;;;;;;23.32;61.53;98459.41;5035974;28;20192;-31
2022/10/18 08:56:13;;;;;;;5.63;4.43;;;;;;;23.30;61.89;98452.47;5063154;28;20261;-31
2022/10/18 08:58:43;;;;;;;5.13;4.33;;;;;;;23.32;61.62;98461.97;5051491;28;20224;-31
2022/10/18 09:01:42;;;;;;;6.53;4.57;;;;;;;23.32;61.67;98459.41;5026697;28;20201;-31
2022/10/18 09:04:18;;;;;;;5.10;4.60;;;;;;;23.32;61.55;98471.34;5048609;28;20228;-31
2022/10/18 09:06:55;;;;;;;7.33;4.23;;;;;;;23.30;61.72;98460.19;5047069;28;20203;-31
2022/10/18 09:09:27;;;;;;;4.73;3.87;;;;;;;23.32;61.46;98466.22;5046786;28;20224;-31
2022/10/18 09:11:57;;;;;;;4.87;4.10;;;;;;;23.31;61.51;98467.94;5046461;28;20582;-31
2022/10/18 09:14:33;;;;;;;7.40;3.70;;;;;;;23.32;61.56;98458.53;5046305;28;20204;-31
2022/10/18 09:17:11;;;;;;;5.57;4.27;;;;;;;23.31;61.66;98467.94;5045853;28;20608;-31
2022/10/18 09:19:53;;;;;;;6.97;3.77;;;;;;;23.32;61.77;98473.91;5041526;28;20703;-31
2022/10/18 09:22:27;;;;;;;4.30;3.80;;;;;;;23.31;61.55;98467.94;5041092;28;20588;-31
2022/10/18 09:25:14;;;;;;;4.90;4.03;;;;;;;23.30;61.56;98467.88;5049791;28;20675;-31
2022/10/18 09:28:23;;;;;;;5.13;3.43;;;;;;;23.31;61.63;98462.78;5027731;28;20209;-31
2022/10/18 09:31:16;;;;;;;4.50;3.50;;;;;;;23.32;61.77;98461.97;5035083;28;20234;-31
2022/10/18 09:34:00;;;;;;;5.47;3.70;;;;;;;23.31;61.55;98449.09;5041712;28;20197;-31
2022/10/18 09:36:35;;;;;;;3.97;3.57;;;;;;;23.33;61.71;98460.28;5052150;28;20201;-31
2022/10/18 09:39:29;;;;;;;5.67;3.80;;;;;;;23.33;61.43;98455.16;5053915;28;20219;-31
2022/10/18 09:42:10;;;;;;;4.73;3.40;;;;;;;23.34;61.45;98459.47;5055828;28;20208;-31
2022/10/18 09:44:43;;;;;;;4.83;3.70;;;;;;;23.32;61.53;98456.84;5035957;28;20750;-34
2022/10/18 09:47:22;;;;;;;3.93;3.40;;;;;;;23.32;61.35;98454.28;5038274;28;20231;-31
2022/10/18 09:50:01;;;;;;;5.83;3.57;;;;;;;23.33;61.33;98445.75;5034658;28;20231;-31
2022/10/18 09:53:20;;;;;;;4.03;3.63;;;;;;;23.34;61.41;98441.50;5060613;28;20651;-32
2022/10/18 09:56:00;;;;;;;4.00;3.37;;;;;;;23.34;61.63;98434.69;5038288;28;20721;-31
2022/10/18 09:58:29;;;;;;;5.10;3.37;;;;;;;23.34;61.56;98434.69;5064134;28;20714;-31
2022/10/18 10:00:55;;;;;;;4.10;3.30;;;;;;;23.30;61.65;98426.81;5043819;28;20200;-31
2022/10/18 10:03:22;;;;;;;3.30;2.97;;;;;;;23.34;61.36;98439.81;5039462;28;20204;-31
2022/10/18 10:06:01;;;;;;;3.80;3.40;;;;;;;23.35;61.64;98443.25;5045180;28;20209;-31
2022/10/18 10:08:31;;;;;;;3.43;3.13;;;;;;;23.32;61.46;98431.19;5047962;28;20676;-31
2022/10/18 10:10:58;;;;;;;4.30;3.37;;;;;;;23.35;61.24;98436.44;5063034;28;20200;-31
2022/10/18 10:13:26;;;;;;;3.73;3.40;;;;;;;23.35;61.65;98428.72;5043527;28;20216;-31
2022/10/18 10:15:57;;;;;;;4.43;3.53;;;;;;;23.36;61.26;98427.06;5040143;28;20212;-32
2022/10/18 10:18:25;;;;;;;4.10;3.10;;;;;;;23.36;61.40;98429.63;5048707;28;20220;-31
2022/10/18 10:21:04;;;;;;;3.93;3.10;;;;;;;23.36;61.33;98432.19;5043094;28;20208;-32
2022/10/18 10:23:35;;;;;;;4.17;3.30;;;;;;;23.31;61.60;98413.19;5029132;28;20205;-31
2022/10/18 10:26:06;;;;;;;3.10;2.80;;;;;;;23.33;61.30;98414.13;5055063;28;20204;-32
2022/10/18 10:28:35;;;;;;;12.67;3.53;;;;;;;23.37;61.39;98426.22;5034613;28;20232;-31
2022/10/18 10:31:19;;;;;;;3.40;3.10;;;;;;;23.37;61.57;98423.66;5052204;28;20230;-31
2022/10/18 10:33:46;;;;;;;4.20;2.90;;;;;;;23.37;61.66;98428.78;5055595;28;20197;-31
2022/10/18 10:36:17;;;;;;;4.17;3.43;;;;;;;23.36;61.57;98430.47;5052181;28;20204;-31
2022/10/18 10:38:44;;;;;;;4.67;3.30;;;;;;;23.36;61.40;98422.78;5047306;28;20221;-31
2022/10/18 10:41:28;;;;;;;4.67;3.70;;;;;;;23.38;61.35;98424.53;5056545;28;20230;-31
2022/10/18 10:43:55;;;;;;;3.57;3.27;;;;;;;23.25;61.42;98395.00;5037018;28;20255;-31
2022/10/18 10:46:22;;;;;;;3.77;3.03;;;;;;;23.34;61.34;98416.75;5052734;28;20432;-31
2022/10/18 10:48:56;;;;;;;3.27;2.97;;;;;;;23.38;61.60;98421.97;5041896;28;20226;-31
2022/10/18 10:51:42;;;;;;;4.33;3.07;;;;;;;23.37;61.61;98415.97;5057433;28;20207;-31
2022/10/18 10:54:16;;;;;;;3.80;3.20;;;;;;;23.38;61.54;98419.41;5052992;28;20200;-31
2022/10/18 10:56:57;;;;;;;3.87;3.10;;;;;;;23.27;61.23;98398.50;5049328;28;20212;-31
2022/10/18 10:59:25;;;;;;;3.43;2.90;;;;;;;23.32;61.53;98408.09;5034469;28;20239;-31
2022/10/18 11:02:19;;;;;;;3.47;2.97;;;;;;;23.37;61.46;98413.41;5034707;28;20582;-31
2022/10/18 11:04:50;;;;;;;3.20;2.90;;;;;;;23.38;61.38;98401.44;5042433;28;20215;-31
2022/10/18 11:07:23;;;;;;;3.30;2.93;;;;;;;23.38;61.28;98401.44;5052045;28;20196;-31
2022/10/18 11:09:49;;;;;;;3.33;3.03;;;;;;;23.38;61.44;98397.16;5053047;28;20247;-32
2022/10/18 11:12:32;;;;;;;3.70;3.00;;;;;;;23.38;61.19;98399.75;5057865;28;20205;-31
2022/10/18 11:15:23;;;;;;;3.20;2.90;;;;;;;23.38;61.48;98400.63;5042883;28;20212;-31
2022/10/18 11:18:13;;;;;;;4.37;3.33;;;;;;;23.39;61.27;98391.25;5049375;28;20229;-32
2022/10/18 11:21:01;;;;;;;3.43;3.10;;;;;;;23.38;61.39;98392.94;5063259;28;20663;-31
2022/10/18 11:23:30;;;;;;;3.90;3.20;;;;;;;23.32;61.11;98371.31;5049839;28;20201;-31
2022/10/18 11:26:12;;;;;;;3.17;2.80;;;;;;;23.39;61.30;98381.00;5028388;28;20202;-31
2022/10/18 11:29:03;;;;;;;3.47;2.80;;;;;;;23.39;61.06;98383.56;5051377;28;20233;-31
2022/10/18 11:31:31;;;;;;;4.43;3.23;;;;;;;23.38;61.29;98374.09;5048810;28;20204;-32
2022/10/18 11:34:35;;;;;;;3.57;3.17;;;;;;;23.38;61.23;98367.28;5051318;28;20215;-31
2022/10/18 11:37:27;;;;;;;3.20;2.90;;;;;;;23.39;61.05;98357.91;5048290;28;20576;-32
2022/10/18 11:40:23;;;;;;;3.37;2.97;;;;;;;23.39;61.21;98360.47;5044876;28;20781;-31
2022/10/18 11:43:05;;;;;;;2.97;2.70;;;;;;;23.38;61.14;98358.69;5053082;28;20762;-31
2022/10/18 11:45:50;;;;;;;3.13;2.83;;;;;;;23.29;61.21;98332.72;5052712;28;20227;-31
2022/10/18 11:48:17;;;;;;;3.33;2.97;;;;;;;23.37;61.11;98356.97;5032168;28;20223;-31